sensor_id;sensor_type;location;lat;lon;timestamp;temperature;humidity
34989;DHT22;21192;40.182;44.516;2023-05-07T00:00:12;20.10;53.50
34989;DHT22;21192;40.182;44.516;2023-05-07T00:02:40;20.10;53.40
34989;DHT22;21192;40.182;44.516;2023-05-07T00:05:07;20.20;53.40
34989;DHT22;21192;40.182;44.516;2023-05-07T00:07:33;20.10;53.30
34989;DHT22;21192;40.182;44.516;2023-05-07T00:09:58;20.10;53.50
34989;DHT22;21192;40.182;44.516;2023-05-07T00:12:24;20.10;53.70
34989;DHT22;21192;40.182;44.516;2023-05-07T00:14:50;20.10;53.70
34989;DHT22;21192;40.182;44.516;2023-05-07T00:17:16;20.10;53.90
34989;DHT22;21192;40.182;44.516;2023-05-07T00:19:42;20.10;53.90
34989;DHT22;21192;40.182;44.516;2023-05-07T00:22:08;20.10;54.00
34989;DHT22;21192;40.182;44.516;2023-05-07T00:24:34;20.10;54.00
34989;DHT22;21192;40.182;44.516;2023-05-07T00:27:00;20.10;54.10
34989;DHT22;21192;40.182;44.516;2023-05-07T00:29:25;20.00;54.20
34989;DHT22;21192;40.182;44.516;2023-05-07T00:31:51;19.90;54.40
34989;DHT22;21192;40.182;44.516;2023-05-07T00:34:19;19.90;54.60
34989;DHT22;21192;40.182;44.516;2023-05-07T00:36:45;19.80;54.70
34989;DHT22;21192;40.182;44.516;2023-05-07T00:39:11;19.80;54.70
34989;DHT22;21192;40.182;44.516;2023-05-07T00:41:37;19.80;54.70
34989;DHT22;21192;40.182;44.516;2023-05-07T00:44:03;19.90;54.70
34989;DHT22;21192;40.182;44.516;2023-05-07T00:46:29;19.80;54.70
34989;DHT22;21192;40.182;44.516;2023-05-07T00:48:56;19.80;54.80
34989;DHT22;21192;40.182;44.516;2023-05-07T00:51:24;19.80;54.90
34989;DHT22;21192;40.182;44.516;2023-05-07T00:53:53;19.70;55.10
34989;DHT22;21192;40.182;44.516;2023-05-07T00:56:21;19.70;55.30
34989;DHT22;21192;40.182;44.516;2023-05-07T00:58:48;19.60;55.30
34989;DHT22;21192;40.182;44.516;2023-05-07T01:01:14;19.60;55.30
34989;DHT22;21192;40.182;44.516;2023-05-07T01:03:42;19.60;55.40
34989;DHT22;21192;40.182;44.516;2023-05-07T01:06:08;19.50;55.50
34989;DHT22;21192;40.182;44.516;2023-05-07T01:08:35;19.50;55.70
34989;DHT22;21192;40.182;44.516;2023-05-07T01:11:02;19.50;55.80
34989;DHT22;21192;40.182;44.516;2023-05-07T01:13:29;19.40;55.80
34989;DHT22;21192;40.182;44.516;2023-05-07T01:15:55;19.40;55.90
34989;DHT22;21192;40.182;44.516;2023-05-07T01:18:21;19.40;55.90
34989;DHT22;21192;40.182;44.516;2023-05-07T01:20:47;19.40;55.80
34989;DHT22;21192;40.182;44.516;2023-05-07T01:23:13;19.40;55.90
34989;DHT22;21192;40.182;44.516;2023-05-07T01:25:40;19.40;55.80
34989;DHT22;21192;40.182;44.516;2023-05-07T01:28:06;19.40;55.80
34989;DHT22;21192;40.182;44.516;2023-05-07T01:30:33;19.40;55.90
34989;DHT22;21192;40.182;44.516;2023-05-07T01:33:08;19.30;55.90
34989;DHT22;21192;40.182;44.516;2023-05-07T01:35:38;19.30;56.00
34989;DHT22;21192;40.182;44.516;2023-05-07T01:38:05;19.30;56.10
34989;DHT22;21192;40.182;44.516;2023-05-07T01:40:31;19.30;56.20
34989;DHT22;21192;40.182;44.516;2023-05-07T01:42:57;19.30;56.20
34989;DHT22;21192;40.182;44.516;2023-05-07T01:45:23;19.40;56.20
34989;DHT22;21192;40.182;44.516;2023-05-07T01:47:50;19.40;56.20
34989;DHT22;21192;40.182;44.516;2023-05-07T01:50:18;19.40;56.20
34989;DHT22;21192;40.182;44.516;2023-05-07T01:52:44;19.30;56.30
34989;DHT22;21192;40.182;44.516;2023-05-07T01:55:10;19.20;56.40
34989;DHT22;21192;40.182;44.516;2023-05-07T01:57:36;19.20;56.70
34989;DHT22;21192;40.182;44.516;2023-05-07T02:00:02;19.10;56.80
34989;DHT22;21192;40.182;44.516;2023-05-07T02:02:30;19.20;56.80
34989;DHT22;21192;40.182;44.516;2023-05-07T02:04:56;19.20;56.80
34989;DHT22;21192;40.182;44.516;2023-05-07T02:07:22;19.20;56.90
34989;DHT22;21192;40.182;44.516;2023-05-07T02:09:48;19.10;56.90
34989;DHT22;21192;40.182;44.516;2023-05-07T02:12:14;19.20;56.90
34989;DHT22;21192;40.182;44.516;2023-05-07T02:14:40;19.10;56.90
34989;DHT22;21192;40.182;44.516;2023-05-07T02:17:05;19.10;56.90
34989;DHT22;21192;40.182;44.516;2023-05-07T02:19:31;19.10;57.10
34989;DHT22;21192;40.182;44.516;2023-05-07T02:21:57;19.10;57.20
34989;DHT22;21192;40.182;44.516;2023-05-07T02:24:23;19.10;57.40
34989;DHT22;21192;40.182;44.516;2023-05-07T02:26:49;19.00;57.60
34989;DHT22;21192;40.182;44.516;2023-05-07T02:29:14;19.00;57.70
34989;DHT22;21192;40.182;44.516;2023-05-07T02:31:40;18.90;57.60
34989;DHT22;21192;40.182;44.516;2023-05-07T02:34:06;19.00;57.70
34989;DHT22;21192;40.182;44.516;2023-05-07T02:36:32;19.10;57.40
34989;DHT22;21192;40.182;44.516;2023-05-07T02:38:58;19.50;56.80
34989;DHT22;21192;40.182;44.516;2023-05-07T02:41:23;20.00;56.10
34989;DHT22;21192;40.182;44.516;2023-05-07T02:43:49;20.40;55.00
34989;DHT22;21192;40.182;44.516;2023-05-07T02:46:15;20.60;54.20
34989;DHT22;21192;40.182;44.516;2023-05-07T02:48:41;20.80;53.80
34989;DHT22;21192;40.182;44.516;2023-05-07T02:51:07;21.30;53.10
34989;DHT22;21192;40.182;44.516;2023-05-07T02:53:33;22.10;52.00
34989;DHT22;21192;40.182;44.516;2023-05-07T02:56:00;22.20;51.10
34989;DHT22;21192;40.182;44.516;2023-05-07T02:58:26;22.20;50.50
34989;DHT22;21192;40.182;44.516;2023-05-07T03:00:52;23.00;49.90
34989;DHT22;21192;40.182;44.516;2023-05-07T03:03:18;23.80;48.90
34989;DHT22;21192;40.182;44.516;2023-05-07T03:05:44;24.10;47.80
34989;DHT22;21192;40.182;44.516;2023-05-07T03:08:10;24.50;47.10
34989;DHT22;21192;40.182;44.516;2023-05-07T03:10:36;25.10;46.40
34989;DHT22;21192;40.182;44.516;2023-05-07T03:13:02;26.00;45.40
34989;DHT22;21192;40.182;44.516;2023-05-07T03:15:28;26.90;44.10
34989;DHT22;21192;40.182;44.516;2023-05-07T03:17:54;27.90;42.60
34989;DHT22;21192;40.182;44.516;2023-05-07T03:20:20;28.90;41.30
34989;DHT22;21192;40.182;44.516;2023-05-07T03:22:46;29.90;40.20
34989;DHT22;21192;40.182;44.516;2023-05-07T03:25:12;30.80;39.00
34989;DHT22;21192;40.182;44.516;2023-05-07T03:27:39;31.80;37.90
34989;DHT22;21192;40.182;44.516;2023-05-07T03:30:07;32.50;36.80
34989;DHT22;21192;40.182;44.516;2023-05-07T03:32:34;33.10;35.90
34989;DHT22;21192;40.182;44.516;2023-05-07T03:35:01;33.20;35.20
34989;DHT22;21192;40.182;44.516;2023-05-07T03:37:27;33.00;34.60
34989;DHT22;21192;40.182;44.516;2023-05-07T03:39:52;32.70;34.50
34989;DHT22;21192;40.182;44.516;2023-05-07T03:42:18;32.20;34.90
34989;DHT22;21192;40.182;44.516;2023-05-07T03:44:44;31.70;35.50
34989;DHT22;21192;40.182;44.516;2023-05-07T03:47:10;30.90;36.10
34989;DHT22;21192;40.182;44.516;2023-05-07T03:49:36;30.10;37.00
34989;DHT22;21192;40.182;44.516;2023-05-07T03:52:02;29.30;37.60
34989;DHT22;21192;40.182;44.516;2023-05-07T03:54:28;28.60;38.30
34989;DHT22;21192;40.182;44.516;2023-05-07T03:56:53;28.00;39.20
34989;DHT22;21192;40.182;44.516;2023-05-07T03:59:19;27.60;39.90
34989;DHT22;21192;40.182;44.516;2023-05-07T04:01:45;27.10;40.40
34989;DHT22;21192;40.182;44.516;2023-05-07T04:04:11;26.60;41.10
34989;DHT22;21192;40.182;44.516;2023-05-07T04:06:38;26.20;41.90
34989;DHT22;21192;40.182;44.516;2023-05-07T04:09:04;25.80;42.60
34989;DHT22;21192;40.182;44.516;2023-05-07T04:11:30;25.40;43.20
34989;DHT22;21192;40.182;44.516;2023-05-07T04:13:56;25.10;44.00
34989;DHT22;21192;40.182;44.516;2023-05-07T04:16:21;24.80;44.70
34989;DHT22;21192;40.182;44.516;2023-05-07T04:18:47;24.60;45.30
34989;DHT22;21192;40.182;44.516;2023-05-07T04:21:17;24.40;45.80
34989;DHT22;21192;40.182;44.516;2023-05-07T04:23:43;24.20;46.40
34989;DHT22;21192;40.182;44.516;2023-05-07T04:26:09;24.00;46.90
34989;DHT22;21192;40.182;44.516;2023-05-07T04:28:35;23.70;47.50
34989;DHT22;21192;40.182;44.516;2023-05-07T04:31:02;23.40;48.00
34989;DHT22;21192;40.182;44.516;2023-05-07T04:33:28;23.10;48.70
34989;DHT22;21192;40.182;44.516;2023-05-07T04:35:53;22.90;49.20
34989;DHT22;21192;40.182;44.516;2023-05-07T04:38:19;22.80;49.70
34989;DHT22;21192;40.182;44.516;2023-05-07T04:40:45;22.60;50.20
34989;DHT22;21192;40.182;44.516;2023-05-07T04:43:12;22.50;50.90
34989;DHT22;21192;40.182;44.516;2023-05-07T04:45:38;22.40;52.10
34989;DHT22;21192;40.182;44.516;2023-05-07T04:48:08;22.30;51.90
34989;DHT22;21192;40.182;44.516;2023-05-07T04:50:34;22.20;52.30
34989;DHT22;21192;40.182;44.516;2023-05-07T04:53:00;22.30;52.20
34989;DHT22;21192;40.182;44.516;2023-05-07T04:55:26;22.30;52.10
34989;DHT22;21192;40.182;44.516;2023-05-07T04:57:52;22.30;52.50
34989;DHT22;21192;40.182;44.516;2023-05-07T05:00:18;22.20;52.20
34989;DHT22;21192;40.182;44.516;2023-05-07T05:02:45;22.20;51.80
34989;DHT22;21192;40.182;44.516;2023-05-07T05:05:11;22.20;51.80
34989;DHT22;21192;40.182;44.516;2023-05-07T05:07:37;22.30;51.80
34989;DHT22;21192;40.182;44.516;2023-05-07T05:10:04;22.30;51.70
34989;DHT22;21192;40.182;44.516;2023-05-07T05:12:31;22.30;51.50
34989;DHT22;21192;40.182;44.516;2023-05-07T05:14:57;22.30;51.50
34989;DHT22;21192;40.182;44.516;2023-05-07T05:17:23;22.30;51.60
34989;DHT22;21192;40.182;44.516;2023-05-07T05:19:49;22.40;51.60
34989;DHT22;21192;40.182;44.516;2023-05-07T05:22:15;22.50;51.60
34989;DHT22;21192;40.182;44.516;2023-05-07T05:24:41;22.40;51.80
34989;DHT22;21192;40.182;44.516;2023-05-07T05:27:06;22.30;52.10
34989;DHT22;21192;40.182;44.516;2023-05-07T05:29:32;22.30;52.30
34989;DHT22;21192;40.182;44.516;2023-05-07T05:31:58;22.40;52.30
34989;DHT22;21192;40.182;44.516;2023-05-07T05:34:24;22.40;52.20
34989;DHT22;21192;40.182;44.516;2023-05-07T05:36:50;22.40;52.20
34989;DHT22;21192;40.182;44.516;2023-05-07T05:39:15;22.40;52.10
34989;DHT22;21192;40.182;44.516;2023-05-07T05:41:41;22.40;52.80
34989;DHT22;21192;40.182;44.516;2023-05-07T05:44:07;22.30;52.30
34989;DHT22;21192;40.182;44.516;2023-05-07T05:46:33;22.30;52.30
34989;DHT22;21192;40.182;44.516;2023-05-07T05:48:59;22.40;52.30
34989;DHT22;21192;40.182;44.516;2023-05-07T05:51:24;22.40;52.30
34989;DHT22;21192;40.182;44.516;2023-05-07T05:53:50;22.50;52.30
34989;DHT22;21192;40.182;44.516;2023-05-07T05:56:16;22.60;52.30
34989;DHT22;21192;40.182;44.516;2023-05-07T05:58:42;22.70;52.10
34989;DHT22;21192;40.182;44.516;2023-05-07T06:01:08;22.80;52.00
34989;DHT22;21192;40.182;44.516;2023-05-07T06:03:34;22.90;51.70
34989;DHT22;21192;40.182;44.516;2023-05-07T06:06:00;22.90;51.60
34989;DHT22;21192;40.182;44.516;2023-05-07T06:08:28;22.80;51.70
34989;DHT22;21192;40.182;44.516;2023-05-07T06:10:55;22.80;51.70
34989;DHT22;21192;40.182;44.516;2023-05-07T06:13:20;22.70;51.70
34989;DHT22;21192;40.182;44.516;2023-05-07T06:15:46;22.70;51.90
34989;DHT22;21192;40.182;44.516;2023-05-07T06:18:12;22.70;51.90
34989;DHT22;21192;40.182;44.516;2023-05-07T06:20:38;22.60;52.10
34989;DHT22;21192;40.182;44.516;2023-05-07T06:23:03;22.50;52.40
34989;DHT22;21192;40.182;44.516;2023-05-07T06:25:29;22.40;52.40
34989;DHT22;21192;40.182;44.516;2023-05-07T06:27:55;22.40;52.30
34989;DHT22;21192;40.182;44.516;2023-05-07T06:30:21;22.40;52.30
34989;DHT22;21192;40.182;44.516;2023-05-07T06:32:47;22.30;52.70
34989;DHT22;21192;40.182;44.516;2023-05-07T06:35:13;22.30;53.00
34989;DHT22;21192;40.182;44.516;2023-05-07T06:37:38;22.30;53.00
34989;DHT22;21192;40.182;44.516;2023-05-07T06:40:08;22.40;53.10
34989;DHT22;21192;40.182;44.516;2023-05-07T06:42:35;22.50;53.10
34989;DHT22;21192;40.182;44.516;2023-05-07T06:45:01;22.40;53.10
34989;DHT22;21192;40.182;44.516;2023-05-07T06:47:28;22.40;53.20
34989;DHT22;21192;40.182;44.516;2023-05-07T06:49:54;22.40;53.20
34989;DHT22;21192;40.182;44.516;2023-05-07T06:52:19;22.30;53.20
34989;DHT22;21192;40.182;44.516;2023-05-07T06:54:45;22.40;53.20
34989;DHT22;21192;40.182;44.516;2023-05-07T06:57:11;22.50;53.00
34989;DHT22;21192;40.182;44.516;2023-05-07T06:59:37;22.50;52.90
34989;DHT22;21192;40.182;44.516;2023-05-07T07:02:03;22.70;52.80
34989;DHT22;21192;40.182;44.516;2023-05-07T07:04:28;22.70;52.60
34989;DHT22;21192;40.182;44.516;2023-05-07T07:06:54;22.90;52.60
34989;DHT22;21192;40.182;44.516;2023-05-07T07:09:22;23.00;52.50
34989;DHT22;21192;40.182;44.516;2023-05-07T07:11:48;23.10;52.40
34989;DHT22;21192;40.182;44.516;2023-05-07T07:14:13;23.20;52.40
34989;DHT22;21192;40.182;44.516;2023-05-07T07:16:40;23.30;52.40
34989;DHT22;21192;40.182;44.516;2023-05-07T07:19:06;23.30;52.20
34989;DHT22;21192;40.182;44.516;2023-05-07T07:21:32;23.40;52.00
34989;DHT22;21192;40.182;44.516;2023-05-07T07:23:58;23.40;52.60
34989;DHT22;21192;40.182;44.516;2023-05-07T07:26:23;23.20;52.10
34989;DHT22;21192;40.182;44.516;2023-05-07T07:28:50;23.10;52.40
34989;DHT22;21192;40.182;44.516;2023-05-07T07:31:15;23.00;52.70
34989;DHT22;21192;40.182;44.516;2023-05-07T07:33:41;22.90;52.80
34989;DHT22;21192;40.182;44.516;2023-05-07T07:36:07;22.80;52.90
34989;DHT22;21192;40.182;44.516;2023-05-07T07:38:34;22.90;53.00
34989;DHT22;21192;40.182;44.516;2023-05-07T07:41:00;22.80;53.10
34989;DHT22;21192;40.182;44.516;2023-05-07T07:43:27;22.70;53.40
34989;DHT22;21192;40.182;44.516;2023-05-07T07:45:53;22.70;53.60
34989;DHT22;21192;40.182;44.516;2023-05-07T07:48:19;22.70;53.60
34989;DHT22;21192;40.182;44.516;2023-05-07T07:50:45;22.80;53.70
34989;DHT22;21192;40.182;44.516;2023-05-07T07:53:13;22.80;53.90
34989;DHT22;21192;40.182;44.516;2023-05-07T07:55:40;22.80;53.90
34989;DHT22;21192;40.182;44.516;2023-05-07T07:58:06;22.80;53.90
34989;DHT22;21192;40.182;44.516;2023-05-07T08:00:32;22.80;53.80
34989;DHT22;21192;40.182;44.516;2023-05-07T08:02:57;22.80;53.90
34989;DHT22;21192;40.182;44.516;2023-05-07T08:05:24;22.90;53.90
34989;DHT22;21192;40.182;44.516;2023-05-07T08:07:50;22.80;54.10
34989;DHT22;21192;40.182;44.516;2023-05-07T08:10:19;22.80;54.20
34989;DHT22;21192;40.182;44.516;2023-05-07T08:12:51;22.80;54.30
34989;DHT22;21192;40.182;44.516;2023-05-07T08:15:17;22.80;54.40
34989;DHT22;21192;40.182;44.516;2023-05-07T08:17:43;22.70;54.50
34989;DHT22;21192;40.182;44.516;2023-05-07T08:20:09;22.70;54.70
34989;DHT22;21192;40.182;44.516;2023-05-07T08:22:36;22.70;54.70
34989;DHT22;21192;40.182;44.516;2023-05-07T08:25:02;22.60;54.90
34989;DHT22;21192;40.182;44.516;2023-05-07T08:27:28;22.30;55.50
34989;DHT22;21192;40.182;44.516;2023-05-07T08:29:54;22.20;55.90
34989;DHT22;21192;40.182;44.516;2023-05-07T08:32:21;22.10;56.10
34989;DHT22;21192;40.182;44.516;2023-05-07T08:34:47;22.00;56.20
34989;DHT22;21192;40.182;44.516;2023-05-07T08:37:13;22.10;56.10
34989;DHT22;21192;40.182;44.516;2023-05-07T08:39:39;22.10;55.90
34989;DHT22;21192;40.182;44.516;2023-05-07T08:42:06;22.20;56.00
34989;DHT22;21192;40.182;44.516;2023-05-07T08:44:33;22.30;55.90
34989;DHT22;21192;40.182;44.516;2023-05-07T08:47:01;22.30;55.80
34989;DHT22;21192;40.182;44.516;2023-05-07T08:49:28;22.30;55.80
34989;DHT22;21192;40.182;44.516;2023-05-07T08:51:54;22.30;54.50
34989;DHT22;21192;40.182;44.516;2023-05-07T08:54:21;22.20;54.20
34989;DHT22;21192;40.182;44.516;2023-05-07T08:56:47;22.10;54.30
34989;DHT22;21192;40.182;44.516;2023-05-07T08:59:13;22.10;54.40
34989;DHT22;21192;40.182;44.516;2023-05-07T09:01:39;22.10;54.50
34989;DHT22;21192;40.182;44.516;2023-05-07T09:04:05;22.00;54.60
34989;DHT22;21192;40.182;44.516;2023-05-07T09:06:33;22.00;54.60
34989;DHT22;21192;40.182;44.516;2023-05-07T09:08:59;22.00;54.10
34989;DHT22;21192;40.182;44.516;2023-05-07T09:11:26;21.90;53.40
34989;DHT22;21192;40.182;44.516;2023-05-07T09:13:56;21.90;53.70
34989;DHT22;21192;40.182;44.516;2023-05-07T09:16:24;21.80;53.30
34989;DHT22;21192;40.182;44.516;2023-05-07T09:18:54;21.80;53.30
34989;DHT22;21192;40.182;44.516;2023-05-07T09:21:21;21.80;52.90
34989;DHT22;21192;40.182;44.516;2023-05-07T09:23:52;21.90;52.10
34989;DHT22;21192;40.182;44.516;2023-05-07T09:26:20;21.90;51.90
34989;DHT22;21192;40.182;44.516;2023-05-07T09:28:46;21.90;51.90
34989;DHT22;21192;40.182;44.516;2023-05-07T09:31:12;21.90;51.70
34989;DHT22;21192;40.182;44.516;2023-05-07T09:33:39;22.00;51.60
34989;DHT22;21192;40.182;44.516;2023-05-07T09:36:06;22.00;51.20
34989;DHT22;21192;40.182;44.516;2023-05-07T09:38:33;22.10;50.90
34989;DHT22;21192;40.182;44.516;2023-05-07T09:41:08;22.20;50.60
34989;DHT22;21192;40.182;44.516;2023-05-07T09:43:36;22.30;50.10
34989;DHT22;21192;40.182;44.516;2023-05-07T09:46:27;22.40;49.30
34989;DHT22;21192;40.182;44.516;2023-05-07T09:48:57;22.40;49.00
34989;DHT22;21192;40.182;44.516;2023-05-07T09:51:38;22.40;49.10
34989;DHT22;21192;40.182;44.516;2023-05-07T09:54:05;22.40;49.20
34989;DHT22;21192;40.182;44.516;2023-05-07T09:56:32;22.40;49.40
34989;DHT22;21192;40.182;44.516;2023-05-07T09:59:01;22.60;49.60
34989;DHT22;21192;40.182;44.516;2023-05-07T10:01:30;22.80;49.50
34989;DHT22;21192;40.182;44.516;2023-05-07T10:03:57;23.00;49.30
34989;DHT22;21192;40.182;44.516;2023-05-07T10:06:25;23.10;48.70
34989;DHT22;21192;40.182;44.516;2023-05-07T10:08:54;23.20;48.30
34989;DHT22;21192;40.182;44.516;2023-05-07T10:11:22;23.30;47.90
34989;DHT22;21192;40.182;44.516;2023-05-07T10:13:48;23.50;47.60
34989;DHT22;21192;40.182;44.516;2023-05-07T10:16:15;23.50;46.60
34989;DHT22;21192;40.182;44.516;2023-05-07T10:18:41;23.50;46.00
34989;DHT22;21192;40.182;44.516;2023-05-07T10:21:16;23.50;45.90
34989;DHT22;21192;40.182;44.516;2023-05-07T10:23:45;23.60;45.80
34989;DHT22;21192;40.182;44.516;2023-05-07T10:26:13;23.80;45.70
34989;DHT22;21192;40.182;44.516;2023-05-07T10:28:43;24.00;45.70
34989;DHT22;21192;40.182;44.516;2023-05-07T10:33:46;24.30;45.20
34989;DHT22;21192;40.182;44.516;2023-05-07T10:36:12;24.40;44.50
34989;DHT22;21192;40.182;44.516;2023-05-07T10:38:38;24.60;44.40
34989;DHT22;21192;40.182;44.516;2023-05-07T10:41:06;24.60;44.40
34989;DHT22;21192;40.182;44.516;2023-05-07T10:43:43;24.60;44.10
34989;DHT22;21192;40.182;44.516;2023-05-07T10:46:15;24.80;43.90
34989;DHT22;21192;40.182;44.516;2023-05-07T10:51:27;24.60;42.80
34989;DHT22;21192;40.182;44.516;2023-05-07T10:56:38;24.60;42.50
34989;DHT22;21192;40.182;44.516;2023-05-07T11:01:54;24.50;42.20
34989;DHT22;21192;40.182;44.516;2023-05-07T11:04:20;24.40;42.10
34989;DHT22;21192;40.182;44.516;2023-05-07T11:15:08;24.20;42.40
34989;DHT22;21192;40.182;44.516;2023-05-07T11:17:51;24.20;42.30
34989;DHT22;21192;40.182;44.516;2023-05-07T11:20:18;24.30;42.30
34989;DHT22;21192;40.182;44.516;2023-05-07T11:22:44;24.40;42.30
34989;DHT22;21192;40.182;44.516;2023-05-07T11:25:10;24.40;42.10
34989;DHT22;21192;40.182;44.516;2023-05-07T11:27:36;24.50;42.10
34989;DHT22;21192;40.182;44.516;2023-05-07T11:30:02;24.60;42.30
34989;DHT22;21192;40.182;44.516;2023-05-07T11:32:30;24.60;42.30
34989;DHT22;21192;40.182;44.516;2023-05-07T11:34:58;24.60;42.30
34989;DHT22;21192;40.182;44.516;2023-05-07T11:37:26;24.60;42.10
34989;DHT22;21192;40.182;44.516;2023-05-07T11:42:37;24.50;41.30
34989;DHT22;21192;40.182;44.516;2023-05-07T11:45:05;24.50;41.10
34989;DHT22;21192;40.182;44.516;2023-05-07T11:47:34;24.50;41.50
34989;DHT22;21192;40.182;44.516;2023-05-07T11:50:07;24.50;41.50
34989;DHT22;21192;40.182;44.516;2023-05-07T11:52:34;24.60;41.40
34989;DHT22;21192;40.182;44.516;2023-05-07T11:55:01;24.80;41.30
34989;DHT22;21192;40.182;44.516;2023-05-07T11:57:27;25.00;41.20
34989;DHT22;21192;40.182;44.516;2023-05-07T11:59:57;25.10;41.00
34989;DHT22;21192;40.182;44.516;2023-05-07T12:02:24;25.20;41.10
34989;DHT22;21192;40.182;44.516;2023-05-07T12:04:54;25.30;40.90
34989;DHT22;21192;40.182;44.516;2023-05-07T12:07:20;25.40;40.70
34989;DHT22;21192;40.182;44.516;2023-05-07T12:09:47;25.30;40.70
34989;DHT22;21192;40.182;44.516;2023-05-07T12:12:13;25.30;40.30
34989;DHT22;21192;40.182;44.516;2023-05-07T12:14:44;25.20;40.10
34989;DHT22;21192;40.182;44.516;2023-05-07T12:17:12;25.10;40.00
34989;DHT22;21192;40.182;44.516;2023-05-07T12:19:39;25.20;40.10
34989;DHT22;21192;40.182;44.516;2023-05-07T12:22:07;25.20;40.10
34989;DHT22;21192;40.182;44.516;2023-05-07T12:24:47;25.20;40.00
34989;DHT22;21192;40.182;44.516;2023-05-07T12:27:14;25.20;40.30
34989;DHT22;21192;40.182;44.516;2023-05-07T12:29:46;25.20;40.30
34989;DHT22;21192;40.182;44.516;2023-05-07T12:32:17;25.20;40.30
34989;DHT22;21192;40.182;44.516;2023-05-07T12:34:43;25.20;40.50
34989;DHT22;21192;40.182;44.516;2023-05-07T12:37:09;25.20;40.30
34989;DHT22;21192;40.182;44.516;2023-05-07T12:39:35;25.30;40.60
34989;DHT22;21192;40.182;44.516;2023-05-07T12:42:01;25.30;40.70
34989;DHT22;21192;40.182;44.516;2023-05-07T12:44:34;25.20;40.30
34989;DHT22;21192;40.182;44.516;2023-05-07T12:47:03;25.10;40.40
34989;DHT22;21192;40.182;44.516;2023-05-07T12:49:29;25.10;40.80
34989;DHT22;21192;40.182;44.516;2023-05-07T12:51:55;25.10;41.40
34989;DHT22;21192;40.182;44.516;2023-05-07T12:54:34;25.00;40.60
34989;DHT22;21192;40.182;44.516;2023-05-07T12:57:09;25.00;40.80
34989;DHT22;21192;40.182;44.516;2023-05-07T12:59:39;25.00;40.90
34989;DHT22;21192;40.182;44.516;2023-05-07T13:02:05;25.00;40.80
34989;DHT22;21192;40.182;44.516;2023-05-07T13:04:32;24.90;40.70
34989;DHT22;21192;40.182;44.516;2023-05-07T13:06:58;24.90;40.70
34989;DHT22;21192;40.182;44.516;2023-05-07T13:09:24;24.80;40.70
34989;DHT22;21192;40.182;44.516;2023-05-07T13:11:50;24.80;40.80
34989;DHT22;21192;40.182;44.516;2023-05-07T13:14:16;24.80;40.80
34989;DHT22;21192;40.182;44.516;2023-05-07T13:16:42;24.90;41.00
34989;DHT22;21192;40.182;44.516;2023-05-07T13:19:08;24.90;41.20
34989;DHT22;21192;40.182;44.516;2023-05-07T13:21:33;24.90;41.30
34989;DHT22;21192;40.182;44.516;2023-05-07T13:24:00;24.80;41.70
34989;DHT22;21192;40.182;44.516;2023-05-07T13:26:26;24.80;42.20
34989;DHT22;21192;40.182;44.516;2023-05-07T13:28:54;24.80;42.10
34989;DHT22;21192;40.182;44.516;2023-05-07T13:31:20;24.70;42.10
34989;DHT22;21192;40.182;44.516;2023-05-07T13:33:47;24.70;42.20
34989;DHT22;21192;40.182;44.516;2023-05-07T13:36:13;24.60;42.30
34989;DHT22;21192;40.182;44.516;2023-05-07T13:38:41;24.60;42.60
34989;DHT22;21192;40.182;44.516;2023-05-07T13:41:07;24.60;42.90
34989;DHT22;21192;40.182;44.516;2023-05-07T13:43:33;24.60;42.80
34989;DHT22;21192;40.182;44.516;2023-05-07T13:46:00;24.70;42.70
34989;DHT22;21192;40.182;44.516;2023-05-07T13:48:26;24.80;42.70
34989;DHT22;21192;40.182;44.516;2023-05-07T13:50:52;25.00;42.60
34989;DHT22;21192;40.182;44.516;2023-05-07T13:53:18;25.00;42.40
34989;DHT22;21192;40.182;44.516;2023-05-07T13:55:44;25.10;42.30
34989;DHT22;21192;40.182;44.516;2023-05-07T13:58:10;25.10;42.30
34989;DHT22;21192;40.182;44.516;2023-05-07T14:00:37;25.20;42.30
34989;DHT22;21192;40.182;44.516;2023-05-07T14:03:04;25.20;42.80
34989;DHT22;21192;40.182;44.516;2023-05-07T14:05:30;25.20;42.60
34989;DHT22;21192;40.182;44.516;2023-05-07T14:07:57;25.20;42.60
34989;DHT22;21192;40.182;44.516;2023-05-07T14:10:23;25.20;42.70
34989;DHT22;21192;40.182;44.516;2023-05-07T14:12:49;25.10;42.80
34989;DHT22;21192;40.182;44.516;2023-05-07T14:15:15;25.10;42.90
34989;DHT22;21192;40.182;44.516;2023-05-07T14:17:42;25.10;43.00
34989;DHT22;21192;40.182;44.516;2023-05-07T14:20:08;25.00;43.20
34989;DHT22;21192;40.182;44.516;2023-05-07T14:22:36;25.00;43.30
34989;DHT22;21192;40.182;44.516;2023-05-07T14:25:02;24.90;43.40
34989;DHT22;21192;40.182;44.516;2023-05-07T14:27:28;24.90;43.60
34989;DHT22;21192;40.182;44.516;2023-05-07T14:29:54;24.90;43.60
34989;DHT22;21192;40.182;44.516;2023-05-07T14:32:21;24.80;43.60
34989;DHT22;21192;40.182;44.516;2023-05-07T14:34:47;24.80;43.80
34989;DHT22;21192;40.182;44.516;2023-05-07T14:37:13;24.70;43.80
34989;DHT22;21192;40.182;44.516;2023-05-07T14:39:39;24.60;43.70
34989;DHT22;21192;40.182;44.516;2023-05-07T14:42:05;24.60;43.70
34989;DHT22;21192;40.182;44.516;2023-05-07T14:44:34;24.60;43.80
34989;DHT22;21192;40.182;44.516;2023-05-07T14:47:00;24.60;43.70
34989;DHT22;21192;40.182;44.516;2023-05-07T14:49:26;24.60;43.80
34989;DHT22;21192;40.182;44.516;2023-05-07T14:51:51;24.70;43.90
34989;DHT22;21192;40.182;44.516;2023-05-07T14:54:17;24.70;43.90
34989;DHT22;21192;40.182;44.516;2023-05-07T14:56:43;24.60;44.00
34989;DHT22;21192;40.182;44.516;2023-05-07T14:59:09;24.60;44.10
34989;DHT22;21192;40.182;44.516;2023-05-07T15:01:36;24.60;44.30
34989;DHT22;21192;40.182;44.516;2023-05-07T15:04:05;24.50;44.30
34989;DHT22;21192;40.182;44.516;2023-05-07T15:06:31;24.60;44.40
34989;DHT22;21192;40.182;44.516;2023-05-07T15:08:58;24.60;44.50
34989;DHT22;21192;40.182;44.516;2023-05-07T15:11:24;24.50;44.60
34989;DHT22;21192;40.182;44.516;2023-05-07T15:13:49;24.50;44.60
34989;DHT22;21192;40.182;44.516;2023-05-07T15:16:16;24.40;44.80
34989;DHT22;21192;40.182;44.516;2023-05-07T15:18:42;24.30;45.30
34989;DHT22;21192;40.182;44.516;2023-05-07T15:21:08;24.20;45.70
34989;DHT22;21192;40.182;44.516;2023-05-07T15:23:34;24.20;45.90
34989;DHT22;21192;40.182;44.516;2023-05-07T15:26:00;24.10;46.10
34989;DHT22;21192;40.182;44.516;2023-05-07T15:28:27;24.00;46.30
34989;DHT22;21192;40.182;44.516;2023-05-07T15:30:54;24.00;46.60
34989;DHT22;21192;40.182;44.516;2023-05-07T15:33:20;23.90;46.80